createdAt,value
2022-07-26T00:05:06.284Z,58.18
2022-07-26T00:14:42.067Z,58.87
2022-07-26T00:24:14.517Z,59.37
2022-07-26T00:33:49.075Z,59.17
2022-07-26T00:43:23.945Z,58.92
2022-07-26T00:52:58.577Z,58.52
2022-07-26T01:02:32.830Z,57.77
2022-07-26T01:12:07.113Z,58.42
2022-07-26T01:21:40.924Z,59.16
2022-07-26T01:31:15.267Z,59.13
2022-07-26T01:40:51.357Z,59.62
2022-07-26T01:50:24.247Z,60.33
2022-07-26T01:59:59.056Z,60.53
2022-07-26T02:09:38.187Z,60.49
2022-07-26T02:19:09.589Z,59.39
2022-07-26T02:28:41.793Z,58.62
2022-07-26T02:38:16.261Z,58.56
2022-07-26T02:47:53.332Z,59.06
2022-07-26T02:57:24.011Z,59.59
2022-07-26T03:06:57.773Z,60.59
2022-07-26T03:16:32.897Z,61.09
2022-07-26T03:26:05.409Z,61.59
2022-07-26T03:35:39.070Z,61.72
2022-07-26T03:45:15.104Z,60.62
2022-07-26T03:54:48.571Z,60.96
2022-07-26T04:04:25.085Z,61.49
2022-07-26T04:13:55.406Z,62.01
2022-07-26T04:23:29.389Z,62.25
2022-07-26T04:33:03.313Z,63.08
2022-07-26T04:42:37.590Z,63.73
2022-07-26T04:52:13.342Z,64.02
2022-07-26T05:01:47.779Z,63.76
2022-07-26T05:11:22.628Z,63.66
2022-07-26T05:20:55.687Z,63.36
2022-07-26T05:30:32.038Z,63.31
2022-07-26T05:40:04.895Z,62.90
2022-07-26T05:49:41.117Z,62.29
2022-07-26T05:59:13.594Z,62.90
2022-07-26T06:08:48.047Z,62.63
2022-07-26T06:18:22.681Z,61.46
2022-07-26T06:19:26.799Z,61.70
2022-07-26T06:20:30.108Z,61.81
2022-07-26T06:30:02.159Z,61.50
2022-07-26T06:31:04.720Z,61.35
2022-07-26T06:32:07.241Z,61.37
2022-07-26T06:33:11.199Z,62.01
2022-07-26T06:34:15.121Z,60.66
2022-07-26T06:35:19.099Z,60.26
2022-07-26T06:36:21.404Z,60.37
2022-07-26T06:37:23.882Z,60.23
2022-07-26T06:38:26.338Z,60.17
2022-07-26T06:39:28.788Z,60.29
2022-07-26T06:49:02.001Z,60.27
2022-07-26T06:50:04.478Z,60.61
2022-07-26T06:51:08.526Z,59.44
2022-07-26T06:52:10.879Z,59.43
2022-07-26T06:53:13.397Z,59.51
2022-07-26T06:54:15.831Z,59.37
2022-07-26T06:55:19.882Z,59.61
2022-07-26T07:04:51.140Z,59.71
2022-07-26T07:05:53.550Z,59.36
2022-07-26T07:06:56.096Z,60.24
2022-07-26T07:08:00.134Z,59.23
2022-07-26T07:09:02.450Z,59.23
2022-07-26T07:10:06.505Z,60.03
2022-07-26T07:11:10.417Z,58.48
2022-07-26T07:12:12.799Z,58.13
2022-07-26T07:13:16.852Z,59.37
2022-07-26T07:14:19.220Z,58.80
2022-07-26T07:15:21.654Z,58.58
2022-07-26T07:16:25.762Z,58.71
2022-07-26T07:17:28.010Z,58.64
2022-07-26T07:27:02.432Z,58.76
2022-07-26T07:28:06.446Z,58.64
2022-07-26T07:29:10.468Z,57.66
2022-07-26T07:30:12.758Z,57.30
2022-07-26T07:31:15.434Z,57.46
2022-07-26T07:32:18.567Z,57.62
2022-07-26T07:33:22.148Z,57.20
2022-07-26T07:34:22.702Z,56.72
2022-07-26T07:35:25.137Z,56.82
2022-07-26T07:36:27.626Z,56.26
2022-07-26T07:37:38.434Z,55.94
2022-07-26T07:38:34.123Z,55.84
2022-07-26T07:39:38.617Z,55.48
2022-07-26T07:40:38.944Z,55.53
2022-07-26T07:41:41.490Z,56.09
2022-07-26T07:42:43.925Z,55.43
2022-07-26T07:43:46.352Z,55.81
2022-07-26T07:44:50.464Z,55.47
2022-07-26T07:45:54.366Z,55.52
2022-07-26T07:46:56.691Z,54.90
2022-07-26T07:48:00.833Z,54.74
2022-07-26T07:49:03.171Z,54.80
2022-07-26T07:50:05.614Z,54.88
2022-07-26T07:59:39.055Z,55.51
2022-07-26T08:00:40.759Z,54.37
2022-07-26T08:01:44.978Z,54.40
2022-07-26T08:02:47.085Z,53.29
2022-07-26T08:03:51.248Z,54.41
2022-07-26T08:04:55.109Z,53.56
2022-07-26T08:05:57.466Z,54.99
2022-07-26T08:07:01.529Z,54.37
2022-07-26T08:08:03.947Z,54.55
2022-07-26T08:09:06.713Z,54.69
2022-07-26T08:10:10.505Z,54.21
2022-07-26T08:11:14.440Z,53.64
2022-07-26T08:12:16.730Z,53.50
2022-07-26T08:13:21.149Z,52.51
2022-07-26T08:14:23.303Z,52.73
2022-07-26T08:15:25.650Z,52.91
2022-07-26T08:16:28.201Z,53.61
2022-07-26T08:17:30.581Z,52.65
2022-07-26T08:18:33.118Z,53.10
2022-07-26T08:19:41.608Z,52.72
2022-07-26T08:20:38.075Z,53.77
2022-07-26T08:21:42.051Z,52.76
2022-07-26T08:22:45.989Z,53.49
2022-07-26T08:23:48.383Z,52.13
2022-07-26T08:24:50.822Z,53.55
2022-07-26T08:25:58.792Z,53.70
2022-07-26T08:26:55.821Z,53.18
2022-07-26T08:28:03.376Z,52.58
2022-07-26T08:29:00.750Z,52.74
2022-07-26T08:30:04.800Z,52.87
2022-07-26T08:31:07.181Z,52.20
2022-07-26T08:32:09.579Z,51.50
2022-07-26T08:33:13.694Z,52.39
2022-07-26T08:34:17.596Z,52.05
2022-07-26T08:35:21.531Z,51.11
2022-07-26T08:36:23.838Z,51.10
2022-07-26T08:37:26.357Z,50.33
2022-07-26T08:38:28.879Z,50.67
2022-07-26T08:39:31.339Z,50.07
2022-07-26T08:40:33.859Z,49.57
2022-07-26T08:41:37.891Z,49.36
2022-07-26T08:42:40.241Z,50.03
2022-07-26T08:43:51.407Z,48.45
2022-07-26T08:44:48.235Z,47.96
2022-07-26T08:45:52.212Z,49.04
2022-07-26T08:46:54.597Z,48.60
2022-07-26T08:48:16.465Z,48.82
2022-07-26T08:48:59.511Z,49.51
2022-07-26T08:50:03.533Z,49.40
2022-07-26T08:51:07.444Z,47.82
2022-07-26T08:52:09.822Z,48.49
2022-07-26T08:54:14.764Z,49.84
2022-07-26T08:55:17.295Z,50.11
2022-07-26T08:56:21.312Z,49.42
2022-07-26T08:57:23.675Z,49.46
2022-07-26T08:58:26.142Z,49.73
2022-07-26T08:59:28.820Z,48.61
2022-07-26T09:00:32.936Z,48.83
2022-07-26T09:01:36.861Z,49.20
2022-07-26T09:02:39.249Z,48.55
2022-07-26T09:03:41.764Z,47.83
2022-07-26T09:04:45.834Z,48.80
2022-07-26T09:05:48.141Z,49.11
2022-07-26T09:06:52.193Z,49.19
2022-07-26T09:07:56.159Z,48.77
2022-07-26T09:09:00.082Z,47.99
2022-07-26T09:10:02.454Z,47.55
2022-07-26T09:11:04.946Z,48.01
2022-07-26T09:12:09.011Z,47.62
2022-07-26T09:13:13.015Z,47.64
2022-07-26T09:14:15.396Z,46.32
2022-07-26T09:15:17.850Z,46.92
2022-07-26T09:16:20.419Z,46.70
2022-07-26T09:17:24.456Z,47.59
2022-07-26T09:18:26.773Z,47.58
2022-07-26T09:19:29.209Z,46.49
2022-07-26T09:20:33.335Z,45.49
2022-07-26T09:21:35.678Z,45.41
2022-07-26T09:22:38.152Z,45.44
2022-07-26T09:23:42.175Z,46.26
2022-07-26T09:24:46.080Z,46.27
2022-07-26T09:25:51.037Z,46.08
2022-07-26T09:26:53.370Z,47.44
2022-07-26T09:27:55.861Z,45.89
2022-07-26T09:28:58.315Z,45.03
2022-07-26T09:30:02.367Z,45.29
2022-07-26T09:31:06.399Z,45.81
2022-07-26T09:32:08.651Z,45.22
2022-07-26T09:33:12.748Z,45.60
2022-07-26T09:34:15.086Z,45.19
2022-07-26T09:35:45.682Z,45.44
2022-07-26T09:36:21.497Z,44.20
2022-07-26T09:37:25.575Z,44.37
2022-07-26T09:38:27.920Z,44.54
2022-07-26T09:39:33.382Z,44.43
2022-07-26T09:40:34.517Z,43.63
2022-07-26T09:41:36.885Z,44.98
2022-07-26T09:42:39.363Z,44.09
2022-07-26T09:43:43.430Z,44.76
2022-07-26T09:44:47.835Z,44.81
2022-07-26T09:45:48.287Z,43.75
2022-07-26T09:46:50.935Z,44.33
2022-07-26T09:56:23.648Z,46.09
2022-07-26T09:57:26.196Z,46.02
2022-07-26T09:58:30.325Z,46.33
2022-07-26T09:59:34.342Z,45.90
2022-07-26T10:00:38.302Z,44.56
2022-07-26T10:01:40.618Z,44.09
2022-07-26T10:02:43.098Z,43.76
2022-07-26T10:03:45.482Z,43.99
2022-07-26T10:04:48.026Z,44.34
2022-07-26T10:05:52.153Z,43.75
2022-07-26T10:06:54.454Z,44.10
2022-07-26T10:07:56.989Z,43.56
2022-07-26T10:08:59.465Z,44.71
2022-07-26T10:10:01.916Z,43.37
2022-07-26T10:11:04.684Z,43.78
2022-07-26T10:12:06.943Z,44.48
2022-07-26T10:13:09.432Z,44.91
2022-07-26T10:14:13.687Z,44.82
2022-07-26T10:15:15.901Z,44.61
2022-07-26T10:16:20.123Z,43.20
2022-07-26T10:17:20.907Z,43.10
2022-07-26T10:18:23.416Z,44.96
2022-07-26T10:19:25.877Z,43.98
2022-07-26T10:20:28.387Z,43.81
2022-07-26T10:21:30.911Z,43.61
2022-07-26T10:22:34.953Z,42.46
2022-07-26T10:23:37.273Z,41.96
2022-07-26T10:24:39.941Z,42.47
2022-07-26T10:25:42.389Z,42.91
2022-07-26T10:26:44.832Z,41.74
2022-07-26T10:27:47.345Z,40.75
2022-07-26T10:28:49.848Z,42.52
2022-07-26T10:29:52.352Z,41.17
2022-07-26T10:30:54.935Z,42.63
2022-07-26T10:31:57.350Z,42.48
2022-07-26T10:32:59.829Z,43.03
2022-07-26T10:34:02.384Z,43.01
2022-07-26T10:35:04.826Z,43.18
2022-07-26T10:36:07.331Z,42.89
2022-07-26T10:37:10.356Z,41.56
2022-07-26T10:38:12.366Z,41.09
2022-07-26T10:39:14.780Z,40.40
2022-07-26T10:40:17.241Z,40.42
2022-07-26T10:41:19.929Z,41.16
2022-07-26T10:42:22.235Z,41.32
2022-07-26T10:43:41.720Z,41.33
2022-07-26T10:44:27.498Z,40.02
2022-07-26T10:45:29.967Z,40.78
2022-07-26T10:46:34.183Z,40.32
2022-07-26T10:47:36.401Z,41.97
2022-07-26T10:48:40.559Z,41.91
2022-07-26T10:49:44.449Z,41.67
2022-07-26T10:50:48.418Z,42.35
2022-07-26T10:51:50.809Z,42.36
2022-07-26T10:52:53.300Z,40.93
2022-07-26T10:53:55.773Z,41.02
2022-07-26T10:54:58.185Z,41.14
2022-07-26T10:56:00.663Z,41.90
2022-07-26T10:57:03.198Z,42.37
2022-07-26T10:58:07.353Z,40.96
2022-07-26T10:59:09.686Z,41.30
2022-07-26T11:00:13.748Z,40.71
2022-07-26T11:01:16.111Z,39.10
2022-07-26T11:02:18.644Z,39.50
2022-07-26T11:03:21.247Z,39.75
2022-07-26T11:04:25.231Z,40.88
2022-07-26T11:05:29.168Z,40.88
2022-07-26T11:06:33.122Z,41.13
2022-07-26T11:07:35.410Z,40.00
2022-07-26T11:08:37.919Z,40.28
2022-07-26T11:09:40.424Z,41.03
2022-07-26T11:10:42.901Z,40.71
2022-07-26T11:11:47.487Z,42.17
2022-07-26T11:12:49.308Z,40.99
2022-07-26T11:13:53.370Z,41.98
2022-07-26T11:14:55.675Z,40.75
2022-07-26T11:15:58.258Z,41.02
2022-07-26T11:17:02.241Z,41.78
2022-07-26T11:18:06.206Z,41.89
2022-07-26T11:19:08.569Z,41.65
2022-07-26T11:20:11.074Z,40.01
2022-07-26T11:21:13.621Z,41.03
2022-07-26T11:22:16.071Z,39.11
2022-07-26T11:23:18.551Z,40.53
2022-07-26T11:24:21.037Z,40.44
2022-07-26T11:25:25.119Z,39.58
2022-07-26T11:26:29.065Z,40.84
2022-07-26T11:27:31.338Z,40.17
2022-07-26T11:28:33.822Z,39.18
2022-07-26T11:29:38.360Z,41.09
2022-07-26T11:30:38.737Z,40.04
2022-07-26T11:31:49.899Z,39.20
2022-07-26T11:32:46.883Z,38.70
2022-07-26T11:33:49.257Z,40.29
2022-07-26T11:34:53.346Z,40.14
2022-07-26T11:35:55.736Z,38.06
2022-07-26T11:36:59.798Z,38.84
2022-07-26T11:38:11.184Z,39.04
2022-07-26T11:39:06.200Z,38.15
2022-07-26T11:40:08.608Z,39.14
2022-07-26T11:41:11.089Z,38.80
2022-07-26T11:42:13.582Z,38.47
2022-07-26T11:43:16.151Z,37.24
2022-07-26T11:44:18.595Z,36.47
2022-07-26T11:45:21.046Z,38.31
2022-07-26T11:46:25.168Z,37.30
2022-07-26T11:47:27.564Z,38.81
2022-07-26T11:48:31.645Z,37.44
2022-07-26T11:49:52.518Z,38.48
2022-07-26T11:50:38.117Z,37.19
2022-07-26T11:51:42.048Z,36.16
2022-07-26T11:52:46.046Z,37.25
2022-07-26T11:53:48.387Z,37.15
2022-07-26T11:54:50.911Z,37.72
2022-07-26T11:55:55.012Z,36.37
2022-07-26T11:56:58.908Z,37.44
2022-07-26T11:58:01.443Z,36.02
2022-07-26T11:59:03.870Z,35.69
2022-07-26T12:00:06.436Z,35.93
2022-07-26T12:01:08.822Z,37.11
2022-07-26T12:02:11.264Z,37.23
2022-07-26T12:03:13.816Z,38.01
2022-07-26T12:04:16.813Z,36.43
2022-07-26T12:05:19.272Z,36.22
2022-07-26T12:06:21.298Z,37.32
2022-07-26T12:07:23.843Z,36.97
2022-07-26T12:08:26.366Z,36.14
2022-07-26T12:09:28.881Z,40.21
2022-07-26T12:10:31.399Z,35.59
2022-07-26T12:11:33.909Z,36.35
2022-07-26T12:12:37.977Z,36.17
2022-07-26T12:13:55.561Z,35.96
2022-07-26T12:14:45.945Z,33.61
2022-07-26T12:15:50.102Z,34.71
2022-07-26T12:16:53.936Z,33.85
2022-07-26T12:17:56.273Z,33.21
2022-07-26T12:19:00.371Z,34.97
2022-07-26T12:20:04.473Z,35.22
2022-07-26T12:21:07.932Z,34.70
2022-07-26T12:22:12.160Z,35.53
2022-07-26T12:23:11.783Z,36.79
2022-07-26T12:24:14.393Z,36.22
2022-07-26T12:25:16.831Z,33.25
2022-07-26T12:26:19.314Z,33.61
2022-07-26T12:27:21.826Z,34.82
2022-07-26T12:28:24.333Z,34.34
2022-07-26T12:29:26.896Z,34.46
2022-07-26T12:30:31.120Z,33.98
2022-07-26T12:31:33.492Z,34.08
2022-07-26T12:32:37.407Z,34.63
2022-07-26T12:33:41.502Z,34.73
2022-07-26T12:34:45.855Z,35.75
2022-07-26T12:35:47.715Z,37.40
2022-07-26T12:36:50.244Z,34.60
2022-07-26T12:37:52.699Z,34.37
2022-07-26T12:38:55.235Z,34.57
2022-07-26T12:39:57.755Z,33.95
2022-07-26T12:41:01.902Z,34.99
2022-07-26T12:42:05.832Z,34.10
2022-07-26T12:43:08.199Z,36.07
2022-07-26T12:44:10.919Z,34.95
2022-07-26T12:45:13.197Z,35.00
2022-07-26T12:46:15.858Z,33.53
2022-07-26T12:47:19.902Z,33.43
2022-07-26T12:48:24.119Z,33.19
2022-07-26T12:49:28.143Z,35.49
2022-07-26T12:50:32.048Z,34.19
2022-07-26T12:51:34.377Z,35.50
2022-07-26T12:52:38.398Z,32.44
2022-07-26T12:53:40.671Z,33.16
2022-07-26T12:54:44.744Z,34.92
2022-07-26T12:55:48.695Z,35.07
2022-07-26T12:56:52.617Z,36.18
2022-07-26T12:57:57.129Z,34.88
2022-07-26T12:59:00.534Z,35.21
2022-07-26T13:00:02.960Z,34.33
2022-07-26T13:01:05.418Z,33.63
2022-07-26T13:02:09.418Z,34.06
2022-07-26T13:03:11.765Z,34.12
2022-07-26T13:04:14.873Z,34.86
2022-07-26T13:05:16.876Z,34.67
2022-07-26T13:06:20.863Z,33.74
2022-07-26T13:07:23.276Z,35.14
2022-07-26T13:08:25.805Z,34.93
2022-07-26T13:09:29.937Z,33.76
2022-07-26T13:10:33.869Z,32.77
2022-07-26T13:11:34.755Z,33.57
2022-07-26T13:12:37.313Z,32.83
2022-07-26T13:13:41.430Z,32.46
2022-07-26T13:14:43.741Z,33.31
2022-07-26T13:15:46.348Z,31.83
2022-07-26T13:16:48.881Z,31.93
2022-07-26T13:17:51.350Z,33.08
2022-07-26T13:18:55.526Z,30.89
2022-07-26T13:19:57.822Z,30.14
2022-07-26T13:21:01.917Z,31.28
2022-07-26T13:22:04.304Z,31.28
2022-07-26T13:23:06.779Z,33.13
2022-07-26T13:24:09.580Z,32.26
2022-07-26T13:25:11.805Z,33.55
2022-07-26T13:26:14.238Z,34.58
2022-07-26T13:27:16.867Z,34.96
2022-07-26T13:28:19.247Z,33.48
2022-07-26T13:29:21.741Z,34.99
2022-07-26T13:30:24.367Z,33.59
2022-07-26T13:31:26.872Z,34.30
2022-07-26T13:32:29.266Z,33.43
2022-07-26T13:33:31.786Z,33.21
2022-07-26T13:34:35.129Z,33.01
2022-07-26T13:35:36.709Z,32.37
2022-07-26T13:36:40.866Z,33.81
2022-07-26T13:37:43.178Z,34.22
2022-07-26T13:38:45.681Z,35.04
2022-07-26T13:39:48.136Z,34.47
2022-07-26T13:40:52.244Z,35.02
2022-07-26T13:41:54.523Z,35.06
2022-07-26T13:42:56.984Z,34.29
2022-07-26T13:43:59.452Z,34.95
2022-07-26T13:45:01.935Z,35.02
2022-07-26T13:46:04.508Z,34.59
2022-07-26T13:47:06.887Z,34.52
2022-07-26T13:48:09.396Z,35.98
2022-07-26T13:49:11.996Z,36.81
2022-07-26T13:50:14.408Z,35.72
2022-07-26T13:51:16.920Z,36.95
2022-07-26T13:52:19.417Z,36.20
2022-07-26T13:53:21.869Z,36.25
2022-07-26T13:54:26.037Z,36.56
2022-07-26T13:55:28.397Z,35.84
2022-07-26T13:56:30.832Z,36.31
2022-07-26T13:57:39.236Z,36.52
2022-07-26T13:58:35.773Z,36.24
2022-07-26T13:59:39.866Z,36.27
2022-07-26T14:00:42.211Z,37.66
2022-07-26T14:01:45.331Z,36.48
2022-07-26T14:02:48.863Z,37.16
2022-07-26T14:03:53.178Z,36.80
2022-07-26T14:04:55.087Z,36.01
2022-07-26T14:05:59.144Z,37.41
2022-07-26T14:07:03.143Z,37.22
2022-07-26T14:08:05.502Z,37.56
2022-07-26T14:09:10.859Z,36.76
2022-07-26T14:10:11.928Z,38.29
2022-07-26T14:11:15.993Z,38.79
2022-07-26T14:12:19.999Z,36.91
2022-07-26T14:13:23.938Z,37.23
2022-07-26T14:14:26.301Z,36.67
2022-07-26T14:15:30.333Z,37.46
2022-07-26T14:16:34.403Z,38.90
2022-07-26T14:17:36.769Z,37.96
2022-07-26T14:18:39.265Z,36.44
2022-07-26T14:19:41.828Z,37.13
2022-07-26T14:20:45.953Z,36.02
2022-07-26T14:21:58.678Z,35.94
2022-07-26T14:22:50.911Z,34.46
2022-07-26T14:23:53.417Z,35.29
2022-07-26T14:24:55.996Z,35.47
2022-07-26T14:25:58.376Z,34.27
2022-07-26T14:27:01.925Z,35.01
2022-07-26T14:28:04.944Z,34.60
2022-07-26T14:29:08.238Z,35.01
2022-07-26T14:30:10.714Z,34.49
2022-07-26T14:31:13.302Z,33.93
2022-07-26T14:32:21.421Z,33.99
2022-07-26T14:33:19.738Z,35.27
2022-07-26T14:34:22.215Z,34.48
2022-07-26T14:35:26.269Z,33.88
2022-07-26T14:36:30.264Z,34.72
2022-07-26T14:37:42.059Z,35.01
2022-07-26T14:38:35.152Z,36.51
2022-07-26T14:39:37.610Z,35.36
2022-07-26T14:40:40.120Z,35.61
2022-07-26T14:41:42.608Z,35.79
2022-07-26T14:42:45.085Z,34.50
2022-07-26T14:43:51.096Z,34.46
2022-07-26T14:44:50.160Z,36.65
2022-07-26T14:45:54.396Z,35.89
2022-07-26T14:46:58.353Z,34.46
2022-07-26T14:48:00.725Z,34.51
2022-07-26T14:49:03.290Z,33.11
2022-07-26T14:50:07.056Z,32.99
2022-07-26T14:51:09.722Z,33.61
2022-07-26T14:52:12.336Z,33.81
2022-07-26T14:53:16.251Z,34.86
2022-07-26T14:54:18.635Z,34.66
2022-07-26T14:55:25.178Z,34.79
2022-07-26T14:56:23.718Z,35.20
2022-07-26T14:57:26.188Z,35.19
2022-07-26T14:58:28.631Z,36.51
2022-07-26T14:59:31.121Z,35.99
2022-07-26T15:00:35.204Z,35.61
2022-07-26T15:01:37.718Z,35.99
2022-07-26T15:02:41.870Z,37.24
2022-07-26T15:03:45.575Z,36.75
2022-07-26T15:04:47.903Z,37.67
2022-07-26T15:05:50.399Z,36.81
2022-07-26T15:06:52.886Z,36.75
2022-07-26T15:07:56.978Z,37.18
2022-07-26T15:08:59.324Z,37.91
2022-07-26T15:10:03.413Z,37.38
2022-07-26T15:11:05.748Z,37.91
2022-07-26T15:12:08.211Z,38.77
2022-07-26T15:13:12.302Z,37.96
2022-07-26T15:14:14.861Z,38.37
2022-07-26T15:15:18.792Z,37.55
2022-07-26T15:16:21.465Z,38.57
2022-07-26T15:17:23.807Z,37.77
2022-07-26T15:18:27.887Z,38.43
2022-07-26T15:19:30.344Z,37.12
2022-07-26T15:20:33.867Z,37.57
2022-07-26T15:21:36.339Z,37.94
2022-07-26T15:22:40.489Z,37.56
2022-07-26T15:23:44.562Z,36.55
2022-07-26T15:24:46.946Z,36.04
2022-07-26T15:25:49.455Z,36.51
2022-07-26T15:26:51.922Z,36.23
2022-07-26T15:27:56.054Z,35.99
2022-07-26T15:29:00.001Z,35.80
2022-07-26T15:30:06.885Z,35.43
2022-07-26T15:31:07.953Z,35.76
2022-07-26T15:32:10.372Z,36.37
2022-07-26T15:33:12.753Z,35.47
2022-07-26T15:34:16.896Z,36.07
2022-07-26T15:35:20.824Z,36.88
2022-07-26T15:36:23.213Z,36.29
2022-07-26T15:37:27.333Z,36.86
2022-07-26T15:38:29.651Z,35.94
2022-07-26T15:39:33.726Z,37.56
2022-07-26T15:40:36.071Z,37.02
2022-07-26T15:41:38.517Z,37.60
2022-07-26T15:42:42.615Z,36.95
2022-07-26T15:43:48.626Z,37.82
2022-07-26T15:44:49.088Z,37.80
2022-07-26T15:45:51.541Z,38.78
2022-07-26T15:46:53.846Z,38.17
2022-07-26T15:48:04.543Z,38.33
2022-07-26T15:48:58.898Z,38.23
2022-07-26T15:50:01.352Z,36.91
2022-07-26T15:51:03.822Z,37.26
2022-07-26T15:52:07.314Z,37.64
2022-07-26T15:53:11.350Z,38.94
2022-07-26T15:54:14.303Z,38.65
2022-07-26T15:55:17.821Z,37.33
2022-07-26T15:56:21.821Z,37.67
2022-07-26T15:57:24.255Z,36.39
2022-07-26T15:58:26.707Z,35.61
2022-07-26T15:59:29.254Z,34.46
2022-07-26T16:00:31.816Z,35.35
2022-07-26T16:01:34.531Z,34.82
2022-07-26T16:02:37.068Z,34.29
2022-07-26T16:03:39.480Z,35.22
2022-07-26T16:04:43.509Z,34.77
2022-07-26T16:05:46.903Z,34.94
2022-07-26T16:06:49.183Z,35.35
2022-07-26T16:07:51.718Z,34.34
2022-07-26T16:09:15.012Z,35.56
2022-07-26T16:09:58.022Z,34.41
2022-07-26T16:11:02.054Z,36.35
2022-07-26T16:12:06.169Z,35.79
2022-07-26T16:13:08.518Z,37.08
2022-07-26T16:14:12.428Z,36.15
2022-07-26T16:15:16.388Z,36.75
2022-07-26T16:16:18.774Z,38.39
2022-07-26T16:17:21.246Z,39.65
2022-07-26T16:18:23.835Z,35.38
2022-07-26T16:19:26.382Z,35.71
2022-07-26T16:20:28.935Z,33.29
2022-07-26T16:21:31.433Z,35.00
2022-07-26T16:22:34.023Z,34.59
2022-07-26T16:23:36.611Z,34.30
2022-07-26T16:24:40.822Z,33.98
2022-07-26T16:25:45.018Z,33.80
2022-07-26T16:26:47.698Z,32.12
2022-07-26T16:27:51.375Z,34.80
2022-07-26T16:28:53.764Z,35.00
2022-07-26T16:29:56.288Z,34.83
2022-07-26T16:31:00.456Z,35.81
2022-07-26T16:32:04.550Z,34.14
2022-07-26T16:33:06.809Z,34.69
2022-07-26T16:34:10.884Z,36.00
2022-07-26T16:35:13.245Z,37.11
2022-07-26T16:36:15.708Z,35.82
2022-07-26T16:37:18.159Z,35.58
2022-07-26T16:38:20.588Z,36.75
2022-07-26T16:39:23.063Z,36.62
2022-07-26T16:40:27.188Z,36.13
2022-07-26T16:41:29.635Z,34.59
2022-07-26T16:42:33.691Z,36.70
2022-07-26T16:43:36.076Z,35.40
2022-07-26T16:44:38.549Z,36.17
2022-07-26T16:45:41.032Z,36.57
2022-07-26T16:46:44.204Z,36.92
2022-07-26T16:47:47.605Z,36.96
2022-07-26T16:48:50.015Z,36.77
2022-07-26T16:49:52.501Z,38.35
2022-07-26T16:50:56.600Z,37.58
2022-07-26T16:52:00.558Z,38.57
2022-07-26T16:53:02.863Z,38.85
2022-07-26T16:54:05.305Z,39.24
2022-07-26T16:55:09.369Z,38.57
2022-07-26T16:56:11.708Z,38.53
2022-07-26T16:57:14.219Z,38.59
2022-07-26T16:58:16.771Z,38.34
2022-07-26T16:59:19.252Z,37.84
2022-07-26T17:00:21.702Z,38.90
2022-07-26T17:01:24.296Z,37.63
2022-07-26T17:02:26.840Z,38.64
2022-07-26T17:03:30.813Z,37.90
2022-07-26T17:04:33.168Z,37.87
2022-07-26T17:05:36.618Z,37.75
2022-07-26T17:06:39.008Z,38.16
2022-07-26T17:07:41.495Z,38.48
2022-07-26T17:08:45.649Z,37.64
2022-07-26T17:09:48.050Z,37.73
2022-07-26T17:10:52.095Z,38.40
2022-07-26T17:11:54.443Z,37.61
2022-07-26T17:12:56.882Z,38.92
2022-07-26T17:13:59.394Z,38.11
2022-07-26T17:15:02.873Z,38.31
2022-07-26T17:16:05.350Z,38.66
2022-07-26T17:17:07.746Z,38.64
2022-07-26T17:18:11.928Z,38.27
2022-07-26T17:19:14.497Z,41.01
2022-07-26T17:20:16.725Z,40.74
2022-07-26T17:21:20.829Z,46.11
2022-07-26T17:22:23.225Z,40.75
2022-07-26T17:23:25.691Z,38.77
2022-07-26T17:24:29.761Z,39.77
2022-07-26T17:25:32.074Z,38.89
2022-07-26T17:26:36.422Z,39.29
2022-07-26T17:27:37.008Z,42.16
2022-07-26T17:28:39.534Z,45.00
2022-07-26T17:29:42.089Z,43.61
2022-07-26T17:30:46.083Z,41.58
2022-07-26T17:31:50.122Z,40.90
2022-07-26T17:32:52.493Z,40.94
2022-07-26T17:33:54.904Z,46.00
2022-07-26T17:34:59.012Z,42.12
2022-07-26T17:36:06.940Z,42.97
2022-07-26T17:37:07.044Z,43.47
2022-07-26T17:38:09.317Z,46.01
2022-07-26T17:39:14.184Z,44.40
2022-07-26T17:40:14.284Z,45.16
2022-07-26T17:41:18.443Z,45.93
2022-07-26T17:42:20.932Z,43.83
2022-07-26T17:43:23.286Z,43.77
2022-07-26T17:44:25.744Z,44.16
2022-07-26T17:45:28.164Z,44.18
2022-07-26T17:46:32.361Z,44.25
2022-07-26T17:47:36.199Z,44.91
2022-07-26T17:48:38.638Z,45.42
2022-07-26T17:49:41.125Z,43.81
2022-07-26T17:50:45.208Z,44.07
2022-07-26T17:51:47.576Z,44.86
2022-07-26T17:52:51.613Z,44.63
2022-07-26T17:53:55.570Z,43.96
2022-07-26T17:54:59.515Z,45.28
2022-07-26T17:56:01.938Z,43.69
2022-07-26T17:57:06.219Z,43.48
2022-07-26T17:58:09.891Z,44.79
2022-07-26T17:59:12.607Z,43.14
2022-07-26T18:00:14.716Z,43.76
2022-07-26T18:01:17.209Z,43.30
2022-07-26T18:02:19.771Z,42.47
2022-07-26T18:03:22.298Z,43.34
2022-07-26T18:04:24.720Z,43.79
2022-07-26T18:05:34.110Z,43.12
2022-07-26T18:06:31.219Z,43.64
2022-07-26T18:07:33.773Z,44.81
2022-07-26T18:08:36.398Z,43.75
2022-07-26T18:09:40.041Z,43.71
2022-07-26T18:10:44.427Z,43.04
2022-07-26T18:11:45.169Z,43.13
2022-07-26T18:12:47.853Z,44.94
2022-07-26T18:13:52.154Z,44.38
2022-07-26T18:14:54.602Z,43.89
2022-07-26T18:15:57.244Z,44.68
2022-07-26T18:16:59.874Z,44.94
2022-07-26T18:18:02.409Z,45.21
2022-07-26T18:19:04.975Z,43.70
2022-07-26T18:20:09.157Z,45.30
2022-07-26T18:21:11.626Z,44.51
2022-07-26T18:22:14.223Z,45.07
2022-07-26T18:23:16.793Z,45.24
2022-07-26T18:24:19.337Z,44.88
2022-07-26T18:25:21.864Z,44.57
2022-07-26T18:26:26.022Z,45.08
2022-07-26T18:27:28.525Z,44.22
2022-07-26T18:28:31.025Z,45.04
2022-07-26T18:29:33.560Z,44.90
2022-07-26T18:30:37.697Z,45.45
2022-07-26T18:31:41.918Z,45.90
2022-07-26T18:41:12.459Z,45.84
2022-07-26T18:42:15.003Z,46.22
2022-07-26T18:43:19.084Z,46.54
2022-07-26T18:44:21.526Z,46.53
2022-07-26T18:53:54.309Z,46.35
2022-07-26T18:54:56.821Z,47.13
2022-07-26T18:55:59.339Z,47.01
2022-07-26T18:57:03.457Z,46.64
2022-07-26T18:58:07.008Z,46.69
2022-07-26T18:59:10.217Z,46.54
2022-07-26T19:00:13.798Z,46.79
2022-07-26T19:01:16.215Z,46.32
2022-07-26T19:02:18.606Z,46.65
2022-07-26T19:03:21.067Z,46.32
2022-07-26T19:04:23.634Z,46.26
2022-07-26T19:05:26.045Z,47.06
2022-07-26T19:06:28.552Z,46.85
2022-07-26T19:07:32.567Z,46.63
2022-07-26T19:08:34.917Z,46.84
2022-07-26T19:09:37.383Z,46.67
2022-07-26T19:19:10.296Z,47.99
2022-07-26T19:28:43.916Z,48.31
2022-07-26T19:38:19.878Z,48.64
2022-07-26T19:47:52.833Z,49.87
2022-07-26T19:57:27.482Z,50.31
2022-07-26T20:07:02.375Z,51.09
2022-07-26T20:16:35.560Z,52.08
2022-07-26T20:26:09.594Z,53.37
2022-07-26T20:35:45.455Z,54.85
2022-07-26T20:45:18.356Z,55.62
2022-07-26T20:54:54.758Z,55.92
2022-07-26T21:04:27.701Z,56.48
2022-07-26T21:14:02.112Z,56.92
2022-07-26T21:23:36.959Z,57.03
2022-07-26T21:33:12.608Z,57.40
2022-07-26T21:42:45.270Z,57.82
2022-07-26T21:52:19.828Z,56.21
2022-07-26T22:01:54.088Z,57.09
2022-07-26T22:11:27.799Z,56.52
2022-07-26T22:21:01.930Z,56.91
2022-07-26T22:30:35.907Z,57.27
2022-07-26T22:40:09.559Z,57.51
2022-07-26T22:49:43.793Z,58.18
2022-07-26T22:59:18.397Z,58.33
2022-07-26T23:08:52.523Z,57.94
2022-07-26T23:18:27.452Z,57.58
2022-07-26T23:28:01.983Z,57.41
2022-07-26T23:37:37.226Z,58.17
2022-07-26T23:47:09.458Z,57.96
2022-07-26T23:56:43.421Z,58.56
